Maersk Damietta — A8OU4 — position and weather

sailwx.info

Track history (hours):
 
Tides and Currents Weather Stations Pressure Air Temp Water Temp Dewpoint Dewpoint Depression Visibility Wind Speed Wind Dir Waves Ship Positions

Maersk Damietta

Last reported at 2015-May-23 17:26 UTC. Time now 2015-May-24 06:50 UTC.
Position N 22°05' E 114°38'.

Length 293 m; draft 8.7 m.

Type: Ship. MMSI: 636091506.

Date/timePositionNaut miles runAvg speedWind from/ knotsBaromVisibWave heightAir tempDewpointWater temp
2015-May-23 17:26N 22°05' E 114°38'60611.9
2015-May-21 14:27N 29°19' E 122°28'1112.4
2015-May-21 13:32N 29°30' E 122°26'1212.6
2015-May-21 12:33N 29°42' E 122°21'1211.6
2015-May-21 11:33N 29°51' E 122°12'1312.8
2015-May-21 10:33N 29°57' E 121°59'8 7.5
2015-May-21 09:31N 29°57' E 121°50'0 0.0
2015-May-21 08:22N 29°57' E 121°50'0 0.0
2015-May-21 07:22N 29°57' E 121°50'0 0.0
2015-May-21 06:25N 29°57' E 121°50'0 0.0
2015-May-21 05:31N 29°57' E 121°50'0 0.0
2015-May-21 04:28N 29°57' E 121°50'0 0.0
2015-May-21 03:33N 29°57' E 121°50'0 0.0
2015-May-21 02:33N 29°57' E 121°50'0 0.0
2015-May-21 01:33N 29°57' E 121°50'0 0.0
2015-May-21 00:33N 29°57' E 121°50'1 1.1
2015-May-20 23:33N 29°57' E 121°52'1211.9
2015-May-20 22:33N 29°56' E 122°05'1212.4
2015-May-20 21:33N 29°47' E 122°16'6 4.5
2015-May-20 20:08N 29°46' E 122°23'0 0.0
2015-May-20 19:33N 29°46' E 122°23'0 0.0
2015-May-20 18:33N 29°46' E 122°23'0 0.2
2015-May-20 17:33N 29°46' E 122°23'0 0.2
2015-May-20 16:33N 29°47' E 122°23'0 0.1
2015-May-20 15:33N 29°46' E 122°23'0 0.0
2015-May-20 14:33N 29°46' E 122°23'0 0.0
2015-May-20 13:33N 29°46' E 122°23'0 0.0
2015-May-20 12:33N 29°46' E 122°23'2 1.9
2015-May-20 11:33N 29°46' E 122°25'1413.6
2015-May-20 10:34N 29°51' E 122°40'1414.5
2015-May-20 09:34N 30°04' E 122°47'1514.7
2015-May-20 08:34N 30°18' E 122°45'1713.9
2015-May-20 07:20N 30°30' E 122°31'1114.3
2015-May-20 06:33N 30°33' E 122°18'1413.0
2015-May-20 05:30N 30°37' E 122°03'1 1.1
2015-May-20 04:33N 30°38' E 122°03'0 0.0
2015-May-20 03:27N 30°38' E 122°03'0 0.0
2015-May-20 02:33N 30°38' E 122°03'0 0.1
2015-May-19 23:28N 30°38' E 122°03'1010.6
2015-May-19 22:30N 30°34' E 122°13'8 8.3
2015-May-19 21:33N 30°32' E 122°22'1010.1
2015-May-19 20:33N 30°33' E 122°34'1010.2
2015-May-19 19:33N 30°34' E 122°46'1210.4
2015-May-19 18:25N 30°35' E 122°59'910.6
2015-May-19 17:33N 30°36' E 123°10'1010.0
2015-May-19 16:32N 30°38' E 123°22'1110.6
2015-May-19 15:32N 30°44' E 123°32'1010.0
2015-May-19 14:30N 30°49' E 123°43'2610.5
2015-May-19 12:04N 31°00' E 124°09'610.8
2015-May-19 11:32N 31°03' E 124°15'1611.2
2015-May-19 10:07N 31°11' E 124°31'712.6
2015-May-19 09:33N 31°14' E 124°39'  
2015-May-14 00:00N 46°06' E 152°00'   050 / 201003.0 5.4 3.5 4.0 1.4 5.0
Track history (hours):
 
Tides and Currents Weather Stations Pressure Air Temp Water Temp Dewpoint Dewpoint Depression Visibility Wind Speed Wind Dir Waves Ship Positions

Maersk Damietta

Last reported at 2015-May-23 17:26 UTC. Time now 2015-May-24 06:50 UTC.
Position N 22°05' E 114°38'.

Length 293 m; draft 8.7 m.

Type: Ship. MMSI: 636091506.

Date/timePositionNaut miles runAvg speedWind from/ knotsBaromVisibWave heightAir tempDewpointWater temp
2015-May-23 17:26N 22°05' E 114°38'60611.9
2015-May-21 14:27N 29°19' E 122°28'1112.4
2015-May-21 13:32N 29°30' E 122°26'1212.6
2015-May-21 12:33N 29°42' E 122°21'1211.6
2015-May-21 11:33N 29°51' E 122°12'1312.8
2015-May-21 10:33N 29°57' E 121°59'8 7.5
2015-May-21 09:31N 29°57' E 121°50'0 0.0
2015-May-21 08:22N 29°57' E 121°50'0 0.0
2015-May-21 07:22N 29°57' E 121°50'0 0.0
2015-May-21 06:25N 29°57' E 121°50'0 0.0
2015-May-21 05:31N 29°57' E 121°50'0 0.0
2015-May-21 04:28N 29°57' E 121°50'0 0.0
2015-May-21 03:33N 29°57' E 121°50'0 0.0
2015-May-21 02:33N 29°57' E 121°50'0 0.0
2015-May-21 01:33N 29°57' E 121°50'0 0.0
2015-May-21 00:33N 29°57' E 121°50'1 1.1
2015-May-20 23:33N 29°57' E 121°52'1211.9
2015-May-20 22:33N 29°56' E 122°05'1212.4
2015-May-20 21:33N 29°47' E 122°16'6 4.5
2015-May-20 20:08N 29°46' E 122°23'0 0.0
2015-May-20 19:33N 29°46' E 122°23'0 0.0
2015-May-20 18:33N 29°46' E 122°23'0 0.2
2015-May-20 17:33N 29°46' E 122°23'0 0.2
2015-May-20 16:33N 29°47' E 122°23'0 0.1
2015-May-20 15:33N 29°46' E 122°23'0 0.0
2015-May-20 14:33N 29°46' E 122°23'0 0.0
2015-May-20 13:33N 29°46' E 122°23'0 0.0
2015-May-20 12:33N 29°46' E 122°23'2 1.9
2015-May-20 11:33N 29°46' E 122°25'1413.6
2015-May-20 10:34N 29°51' E 122°40'1414.5
2015-May-20 09:34N 30°04' E 122°47'1514.7
2015-May-20 08:34N 30°18' E 122°45'1713.9
2015-May-20 07:20N 30°30' E 122°31'1114.3
2015-May-20 06:33N 30°33' E 122°18'1413.0
2015-May-20 05:30N 30°37' E 122°03'1 1.1
2015-May-20 04:33N 30°38' E 122°03'0 0.0
2015-May-20 03:27N 30°38' E 122°03'0 0.0
2015-May-20 02:33N 30°38' E 122°03'0 0.1
2015-May-19 23:28N 30°38' E 122°03'1010.6
2015-May-19 22:30N 30°34' E 122°13'8 8.3
2015-May-19 21:33N 30°32' E 122°22'1010.1
2015-May-19 20:33N 30°33' E 122°34'1010.2
2015-May-19 19:33N 30°34' E 122°46'1210.4
2015-May-19 18:25N 30°35' E 122°59'910.6
2015-May-19 17:33N 30°36' E 123°10'1010.0
2015-May-19 16:32N 30°38' E 123°22'1110.6
2015-May-19 15:32N 30°44' E 123°32'1010.0
2015-May-19 14:30N 30°49' E 123°43'2610.5
2015-May-19 12:04N 31°00' E 124°09'610.8
2015-May-19 11:32N 31°03' E 124°15'1611.2
2015-May-19 10:07N 31°11' E 124°31'712.6
2015-May-19 09:33N 31°14' E 124°39'  
2015-May-14 00:00N 46°06' E 152°00'   050 / 201003.0 5.4 3.5 4.0 1.4 5.0

Dump ship's entire track history